Time;durP1;ratioP1;P1;durP2;ratioP2;P2;SDS_P1;SDS_P2;PMS_P1;PMS_P2;Temp;Humidity;BMP_temperature;BMP_pressure;BME280_temperature;BME280_humidity;BME280_pressure;Samples;Min_cycle;Max_cycle;Signal;HPM_P1;HPM_P2
2022/09/19 00:01:40;;;;;;;;;;;;;;;7.88;100.00;97899.42;2203952;80;20100;-57
2022/09/19 00:04:41;;;;;;;;;;;;;;;7.93;100.00;97901.28;2197775;80;20092;-57
2022/09/19 00:07:43;;;;;;;;;;;;;;;7.96;100.00;97901.08;2191970;80;20137;-57
2022/09/19 00:10:44;;;;;;;;;;;;;;;8.00;100.00;97896.95;2210010;80;20097;-58
2022/09/19 00:13:47;;;;;;;;;;;;;;;8.05;100.00;97899.64;2200669;80;20384;-58
2022/09/19 00:16:49;;;;;;;;;;;;;;;8.07;100.00;97899.05;2203980;80;20124;-58
2022/09/19 00:19:51;;;;;;;;;;;;;;;8.12;100.00;97906.13;2203223;80;20109;-58
2022/09/19 00:25:56;;;;;;;;;;;;;;;8.14;100.00;97898.20;2179903;81;20132;-58
2022/09/19 00:28:57;;;;;;;;;;;;;;;8.19;100.00;97901.80;2204161;80;20097;-58
2022/09/19 00:31:59;;;;;;;;;;;;;;;8.14;100.00;97897.72;2201304;79;20523;-58
2022/09/19 00:35:01;;;;;;;;;;;;;;;8.16;100.00;97901.56;2205131;80;20101;-57
2022/09/19 00:38:03;;;;;;;;;;;;;;;8.09;100.00;97893.77;2205411;80;20097;-58
2022/09/19 00:41:05;;;;;;;;;;;;;;;8.15;100.00;97898.09;2204365;80;20364;-58
2022/09/19 00:44:06;;;;;;;;;;;;;;;8.08;100.00;97896.82;2202719;80;20108;-59
2022/09/19 00:47:08;;;;;;;;;;;;;;;8.06;100.00;97897.85;2203982;80;20123;-58
2022/09/19 00:50:10;;;;;;;;;;;;;;;7.96;100.00;97899.77;2201985;80;20410;-58
2022/09/19 00:53:11;;;;;;;;;;;;;;;7.96;100.00;97902.86;2197252;80;20147;-58
2022/09/19 00:56:15;;;;;;;;;;;;;;;8.04;100.00;97900.56;2207123;79;20133;-58
2022/09/19 00:59:16;;;;;;;;;;;;;;;8.05;100.00;97891.80;2169240;80;20096;-58
2022/09/19 01:02:21;;;;;;;;;;;;;;;8.01;100.00;97907.78;2207685;80;20139;-58
2022/09/19 01:05:21;;;;;;;;;;;;;;;8.02;100.00;97899.84;2176341;80;20442;-58
2022/09/19 01:08:24;;;;;;;;;;;;;;;8.02;100.00;97898.54;2215259;80;20153;-58
2022/09/19 01:11:25;;;;;;;;;;;;;;;7.98;100.00;97901.80;2209655;80;20119;-58
2022/09/19 01:14:28;;;;;;;;;;;;;;;7.82;100.00;97904.23;2207479;80;20508;-58
2022/09/19 01:17:31;;;;;;;;;;;;;;;7.85;100.00;97906.16;2213592;80;20132;-58
2022/09/19 01:20:32;;;;;;;;;;;;;;;7.82;100.00;97898.53;2197525;80;20137;-58
2022/09/19 01:23:35;;;;;;;;;;;;;;;7.88;100.00;97903.82;2204958;80;20120;-58
2022/09/19 01:26:37;;;;;;;;;;;;;;;7.84;100.00;97906.25;2203512;80;20109;-58
2022/09/19 01:29:39;;;;;;;;;;;;;;;7.79;100.00;97901.34;2193942;80;20101;-58
2022/09/19 01:32:42;;;;;;;;;;;;;;;7.77;100.00;97902.74;2208650;80;20136;-58
2022/09/19 01:35:43;;;;;;;;;;;;;;;7.74;100.00;97901.64;2215246;79;20120;-58
2022/09/19 01:38:45;;;;;;;;;;;;;;;7.74;100.00;97898.17;2206941;80;20186;-58
2022/09/19 01:41:46;;;;;;;;;;;;;;;7.75;100.00;97898.55;2203002;80;20115;-58
2022/09/19 01:44:48;;;;;;;;;;;;;;;7.82;100.00;97897.70;2211666;80;20136;-58
2022/09/19 01:47:49;;;;;;;;;;;;;;;7.78;100.00;97898.34;2186674;80;20108;-58
2022/09/19 01:50:51;;;;;;;;;;;;;;;7.78;100.00;97901.78;2206109;80;20115;-58
2022/09/19 01:53:53;;;;;;;;;;;;;;;7.79;100.00;97896.94;2209161;80;20105;-58
2022/09/19 01:56:54;;;;;;;;;;;;;;;7.82;100.00;97893.30;2209045;80;20124;-58
2022/09/19 01:59:56;;;;;;;;;;;;;;;7.82;100.00;97893.78;2204477;80;20533;-58
2022/09/19 02:02:57;;;;;;;;;;;;;;;7.83;100.00;97902.82;2207638;80;20113;-58
2022/09/19 02:06:00;;;;;;;;;;;;;;;7.79;100.00;97900.03;2203237;80;20097;-59
2022/09/19 02:09:03;;;;;;;;;;;;;;;7.78;100.00;97899.66;2200712;80;20105;-58
2022/09/19 02:12:05;;;;;;;;;;;;;;;7.81;100.00;97902.06;2197814;80;20130;-58
2022/09/19 02:15:07;;;;;;;;;;;;;;;7.84;100.00;97905.78;2201300;80;20104;-58
2022/09/19 02:18:08;;;;;;;;;;;;;;;7.78;100.00;97904.40;2212577;79;20096;-58
2022/09/19 02:21:11;;;;;;;;;;;;;;;7.83;100.00;97907.19;2204024;80;20431;-58
2022/09/19 02:24:13;;;;;;;;;;;;;;;7.82;100.00;97909.45;2198749;80;20096;-58
2022/09/19 02:27:17;;;;;;;;;;;;;;;7.85;100.00;97901.41;2204214;80;20116;-59
2022/09/19 02:30:20;;;;;;;;;;;;;;;7.89;100.00;97906.33;2209852;80;20097;-58
2022/09/19 02:33:21;;;;;;;;;;;;;;;7.94;100.00;97908.19;2175647;80;20493;-58
2022/09/19 02:36:23;;;;;;;;;;;;;;;7.94;100.00;97908.64;2206715;80;20155;-58
2022/09/19 02:39:25;;;;;;;;;;;;;;;8.01;100.00;97916.44;2205118;80;20115;-58
2022/09/19 02:42:30;;;;;;;;;;;;;;;8.00;100.00;97912.14;2201919;80;20419;-58
2022/09/19 02:45:32;;;;;;;;;;;;;;;7.89;100.00;97912.03;2182491;80;20097;-58
2022/09/19 02:48:34;;;;;;;;;;;;;;;7.79;100.00;97911.78;2207088;80;20120;-58
2022/09/19 02:51:35;;;;;;;;;;;;;;;7.82;100.00;97912.88;2207742;80;20376;-58
2022/09/19 02:54:38;;;;;;;;;;;;;;;7.83;100.00;97918.93;2206064;80;20108;-59
2022/09/19 02:57:40;;;;;;;;;;;;;;;7.77;100.00;97913.19;2195604;80;20104;-58
2022/09/19 03:00:41;;;;;;;;;;;;;;;7.66;100.00;97921.31;2206709;80;20097;-58
2022/09/19 03:06:47;;;;;;;;;;;;;;;7.88;100.00;97915.09;2186201;80;20155;-57
2022/09/19 03:09:48;;;;;;;;;;;;;;;7.92;100.00;97924.89;2212348;80;20414;-58
2022/09/19 03:12:51;;;;;;;;;;;;;;;7.87;100.00;97919.94;2212951;80;20109;-57
2022/09/19 03:15:52;;;;;;;;;;;;;;;7.76;100.00;97924.55;2210186;79;20100;-58
2022/09/19 03:18:55;;;;;;;;;;;;;;;7.78;100.00;97926.59;2211801;80;20438;-58
2022/09/19 03:21:58;;;;;;;;;;;;;;;7.68;100.00;97924.67;2204107;80;20551;-58
2022/09/19 03:25:02;;;;;;;;;;;;;;;7.79;100.00;97926.97;2205223;80;20153;-58
2022/09/19 03:28:03;;;;;;;;;;;;;;;7.74;100.00;97936.02;2182490;80;20405;-58
2022/09/19 03:31:04;;;;;;;;;;;;;;;7.75;100.00;97929.88;2204899;80;20128;-59
2022/09/19 03:34:06;;;;;;;;;;;;;;;7.70;100.00;97937.15;2204347;80;20124;-59
2022/09/19 03:37:08;;;;;;;;;;;;;;;7.70;100.00;97938.45;2208654;80;20097;-58
2022/09/19 03:40:10;;;;;;;;;;;;;;;7.73;100.00;97935.64;2205057;80;20105;-58
2022/09/19 03:43:12;;;;;;;;;;;;;;;7.71;100.00;97941.44;2199096;80;20100;-57
2022/09/19 03:46:14;;;;;;;;;;;;;;;7.65;100.00;97947.89;2211272;80;20469;-58
2022/09/19 03:49:16;;;;;;;;;;;;;;;7.66;100.00;97939.58;2204793;80;20115;-58
2022/09/19 03:52:17;;;;;;;;;;;;;;;7.66;100.00;97938.27;2205939;80;20106;-58
2022/09/19 03:55:19;;;;;;;;;;;;;;;7.64;100.00;97946.20;2205180;80;20560;-57
2022/09/19 03:58:20;;;;;;;;;;;;;;;7.56;100.00;97944.09;2201488;80;20185;-57
2022/09/19 04:01:22;;;;;;;;;;;;;;;7.54;100.00;97947.72;2203513;80;20198;-57
2022/09/19 04:04:24;;;;;;;;;;;;;;;7.54;100.00;97952.94;2206780;80;20111;-57
2022/09/19 04:07:27;;;;;;;;;;;;;;;7.51;100.00;97946.13;2206476;80;20109;-58
2022/09/19 04:10:28;;;;;;;;;;;;;;;7.51;100.00;97949.22;2205730;80;20085;-58
2022/09/19 04:13:32;;;;;;;;;;;;;;;7.54;100.00;97943.36;2206514;80;20403;-58
2022/09/19 04:16:33;;;;;;;;;;;;;;;7.57;100.00;97948.83;2176710;80;20180;-58
2022/09/19 04:19:34;;;;;;;;;;;;;;;7.59;100.00;97946.98;2196896;80;20097;-58
2022/09/19 04:22:37;;;;;;;;;;;;;;;7.61;100.00;97950.31;2204824;80;20096;-58
2022/09/19 04:25:39;;;;;;;;;;;;;;;7.59;100.00;97945.67;2207912;80;20154;-58
2022/09/19 04:28:41;;;;;;;;;;;;;;;7.70;100.00;97945.84;2211392;80;20406;-58
2022/09/19 04:31:43;;;;;;;;;;;;;;;7.66;100.00;97950.87;2202217;80;20109;-58
2022/09/19 04:34:47;;;;;;;;;;;;;;;7.68;100.00;97956.00;2202745;80;20120;-58
2022/09/19 04:37:47;;;;;;;;;;;;;;;7.72;100.00;97958.31;2181995;80;20104;-59
2022/09/19 04:40:49;;;;;;;;;;;;;;;7.82;100.00;97956.44;2213172;80;20100;-59
2022/09/19 04:43:51;;;;;;;;;;;;;;;7.88;100.00;97964.70;2205083;80;20104;-58
2022/09/19 04:46:52;;;;;;;;;;;;;;;7.88;100.00;97966.48;2209589;80;20096;-58
2022/09/19 04:49:56;;;;;;;;;;;;;;;7.86;100.00;97978.33;2207846;80;20391;-58
2022/09/19 04:52:57;;;;;;;;;;;;;;;7.90;100.00;97982.43;2164393;80;20119;-58
2022/09/19 04:55:59;;;;;;;;;;;;;;;7.92;100.00;97980.55;2191737;80;20410;-58
2022/09/19 04:59:01;;;;;;;;;;;;;;;7.91;100.00;97985.39;2206422;80;20131;-58
2022/09/19 05:02:06;;;;;;;;;;;;;;;7.98;100.00;97987.98;2214285;80;20093;-58
2022/09/19 05:05:06;;;;;;;;;;;;;;;7.98;100.00;97992.38;2163467;80;20198;-57
2022/09/19 05:08:08;;;;;;;;;;;;;;;7.97;100.00;97995.47;2198361;80;20116;-58
2022/09/19 05:11:09;;;;;;;;;;;;;;;8.01;100.00;97995.27;2209581;80;20104;-58
2022/09/19 05:14:10;;;;;;;;;;;;;;;7.98;100.00;97998.91;2213577;80;20088;-58
2022/09/19 05:17:12;;;;;;;;;;;;;;;8.04;100.00;97997.68;2208844;80;20431;-58
2022/09/19 05:20:13;;;;;;;;;;;;;;;8.02;100.00;98000.88;2193131;80;20104;-58
2022/09/19 05:23:15;;;;;;;;;;;;;;;8.07;100.00;98004.00;2211813;80;20394;-58
2022/09/19 05:26:16;;;;;;;;;;;;;;;8.19;100.00;98006.30;2210117;80;20108;-58
2022/09/19 05:29:18;;;;;;;;;;;;;;;8.12;100.00;98009.31;2210754;80;20137;-58
2022/09/19 05:32:20;;;;;;;;;;;;;;;8.20;100.00;98017.13;2204994;80;20399;-58
2022/09/19 05:35:21;;;;;;;;;;;;;;;8.27;100.00;98015.79;2211908;80;20145;-58
2022/09/19 05:38:22;;;;;;;;;;;;;;;8.24;100.00;98023.35;2209135;80;20430;-58
2022/09/19 05:41:24;;;;;;;;;;;;;;;8.26;100.00;98024.55;2211983;80;20123;-58
2022/09/19 05:44:26;;;;;;;;;;;;;;;8.07;100.00;98028.82;2200590;80;20139;-58
2022/09/19 05:47:28;;;;;;;;;;;;;;;8.04;100.00;98035.55;2213770;80;20443;-57
2022/09/19 05:50:29;;;;;;;;;;;;;;;8.12;100.00;98033.30;2208003;80;20111;-57
2022/09/19 05:56:34;;;;;;;;;;;;;;;8.25;100.00;98035.97;2187162;80;20100;-58
2022/09/19 05:59:36;;;;;;;;;;;;;;;8.27;100.00;98036.22;2195499;80;20107;-58
2022/09/19 06:02:38;;;;;;;;;;;;;;;8.30;100.00;98036.49;2191369;80;20416;-57
2022/09/19 06:05:39;;;;;;;;;;;;;;;8.36;100.00;98042.66;2215380;80;20148;-57
2022/09/19 06:08:41;;;;;;;;;;;;;;;8.45;100.00;98037.33;2201659;80;20096;-58
2022/09/19 06:11:42;;;;;;;;;;;;;;;8.47;100.00;98044.59;2201445;80;20125;-58
2022/09/19 06:14:44;;;;;;;;;;;;;;;8.48;100.00;98051.02;2202181;80;20128;-57
2022/09/19 06:17:49;;;;;;;;;;;;;;;8.40;100.00;98048.50;2184816;80;20098;-58
2022/09/19 06:20:49;;;;;;;;;;;;;;;8.45;100.00;98051.70;2178235;80;20128;-57
2022/09/19 06:23:50;;;;;;;;;;;;;;;8.42;100.00;98063.60;2208421;80;20172;-57
2022/09/19 06:26:53;;;;;;;;;;;;;;;8.40;100.00;98069.41;2198288;80;20575;-58
2022/09/19 06:29:55;;;;;;;;;;;;;;;8.53;100.00;98066.39;2211197;80;20537;-58
2022/09/19 06:32:57;;;;;;;;;;;;;;;8.62;100.00;98066.27;2210893;80;20099;-58
2022/09/19 06:35:59;;;;;;;;;;;;;;;8.71;100.00;98070.91;2214585;80;20107;-58
2022/09/19 06:39:00;;;;;;;;;;;;;;;8.79;100.00;98075.63;2205660;80;20402;-58
2022/09/19 06:42:02;;;;;;;;;;;;;;;8.72;100.00;98077.83;2196183;80;20104;-58
2022/09/19 06:45:05;;;;;;;;;;;;;;;8.64;100.00;98086.14;2215368;80;20403;-59
2022/09/19 06:48:06;;;;;;;;;;;;;;;8.72;100.00;98088.73;2176659;80;20150;-58
2022/09/19 06:51:08;;;;;;;;;;;;;;;8.68;100.00;98092.03;2198217;80;20365;-58
2022/09/19 06:54:10;;;;;;;;;;;;;;;8.73;100.00;98090.42;2188443;80;20131;-59
2022/09/19 06:57:11;;;;;;;;;;;;;;;8.85;100.00;98094.86;2214893;80;20119;-58
2022/09/19 07:00:13;;;;;;;;;;;;;;;8.84;100.00;98097.09;2201641;80;20445;-58
2022/09/19 07:03:15;;;;;;;;;;;;;;;8.88;100.00;98093.34;2197425;80;20101;-58
2022/09/19 07:06:17;;;;;;;;;;;;;;;8.96;100.00;98097.58;2201904;80;20098;-59
2022/09/19 07:09:19;;;;;;;;;;;;;;;8.96;100.00;98115.06;2206392;80;20391;-58
2022/09/19 07:12:21;;;;;;;;;;;;;;;8.93;100.00;98112.17;2209697;80;20109;-58
2022/09/19 07:15:22;;;;;;;;;;;;;;;8.86;100.00;98112.69;2203649;80;20096;-59
2022/09/19 07:18:24;;;;;;;;;;;;;;;8.86;100.00;98113.52;2204937;80;20426;-58
2022/09/19 07:21:25;;;;;;;;;;;;;;;8.88;100.00;98119.95;2202448;80;20108;-58
2022/09/19 07:24:26;;;;;;;;;;;;;;;9.02;100.00;98117.27;2202356;80;20099;-58
2022/09/19 07:27:28;;;;;;;;;;;;;;;9.13;100.00;98123.11;2211007;80;20114;-58
2022/09/19 07:30:30;;;;;;;;;;;;;;;9.09;100.00;98122.94;2206549;80;20155;-58
2022/09/19 07:33:31;;;;;;;;;;;;;;;9.08;100.00;98126.04;2207699;80;20431;-58
2022/09/19 07:36:33;;;;;;;;;;;;;;;9.03;100.00;98137.26;2209947;80;20097;-58
2022/09/19 07:39:34;;;;;;;;;;;;;;;9.11;100.00;98134.16;2207652;80;20096;-58
2022/09/19 07:42:36;;;;;;;;;;;;;;;9.22;100.00;98142.11;2203640;80;20136;-58
2022/09/19 07:45:37;;;;;;;;;;;;;;;9.40;100.00;98145.77;2212866;80;20120;-59
2022/09/19 07:48:38;;;;;;;;;;;;;;;9.50;100.00;98153.38;2207056;80;20435;-58
2022/09/19 07:51:40;;;;;;;;;;;;;;;9.57;100.00;98154.64;2206819;80;20121;-57
2022/09/19 07:54:41;;;;;;;;;;;;;;;9.46;100.00;98154.52;2200709;80;20425;-57
2022/09/19 07:57:44;;;;;;;;;;;;;;;9.35;100.00;98160.45;2206249;80;20193;-57
2022/09/19 08:00:48;;;;;;;;;;;;;;;9.31;100.00;98155.91;2206290;80;20107;-57
2022/09/19 08:03:49;;;;;;;;;;;;;;;9.28;100.00;98161.35;2203618;80;20096;-57
2022/09/19 08:06:51;;;;;;;;;;;;;;;9.46;100.00;98160.58;2205606;80;20120;-59
2022/09/19 08:09:52;;;;;;;;;;;;;;;9.60;100.00;98167.52;2203161;80;20108;-58
2022/09/19 08:12:54;;;;;;;;;;;;;;;9.59;100.00;98168.45;2206239;80;20123;-58
2022/09/19 08:15:55;;;;;;;;;;;;;;;9.71;100.00;98166.77;2208350;79;20446;-58
2022/09/19 08:18:58;;;;;;;;;;;;;;;9.96;100.00;98168.56;2201413;80;20104;-58
2022/09/19 08:22:00;;;;;;;;;;;;;;;10.40;100.00;98173.83;2204430;80;20108;-58
2022/09/19 08:25:01;;;;;;;;;;;;;;;11.07;100.00;98170.39;2203522;80;20093;-58
2022/09/19 08:28:03;;;;;;;;;;;;;;;11.52;100.00;98162.68;2199794;80;20116;-59
2022/09/19 08:31:05;;;;;;;;;;;;;;;11.88;100.00;98163.91;2204309;80;20129;-58
2022/09/19 08:34:08;;;;;;;;;;;;;;;12.24;100.00;98161.58;2201102;80;20450;-59
2022/09/19 08:37:10;;;;;;;;;;;;;;;12.42;100.00;98159.77;2204556;80;20387;-58
2022/09/19 08:43:15;;;;;;;;;;;;;;;11.69;100.00;98180.25;2175521;80;20399;-58
2022/09/19 08:46:16;;;;;;;;;;;;;;;11.36;100.00;98177.41;2206047;80;20124;-59
2022/09/19 08:49:18;;;;;;;;;;;;;;;11.06;100.00;98181.83;2209633;80;20088;-58
2022/09/19 08:52:19;;;;;;;;;;;;;;;10.85;100.00;98175.89;2215524;80;20124;-58
2022/09/19 08:55:21;;;;;;;;;;;;;;;11.05;100.00;98173.13;2205450;80;20109;-58
2022/09/19 08:58:23;;;;;;;;;;;;;;;11.53;100.00;98170.06;2203925;80;20446;-58
2022/09/19 09:01:25;;;;;;;;;;;;;;;11.51;100.00;98177.23;2210256;80;20108;-58
2022/09/19 09:04:30;;;;;;;;;;;;;;;11.49;100.00;98179.13;2200894;80;20190;-58
2022/09/19 09:07:30;;;;;;;;;;;;;;;11.47;100.00;98184.50;2183035;80;20215;-58
2022/09/19 09:10:32;;;;;;;;;;;;;;;11.42;100.00;98187.47;2211053;80;20131;-59
2022/09/19 09:13:35;;;;;;;;;;;;;;;11.11;100.00;98177.09;2206086;80;20395;-58
2022/09/19 09:16:37;;;;;;;;;;;;;;;11.01;100.00;98182.17;2202105;80;20435;-58
2022/09/19 09:19:38;;;;;;;;;;;;;;;11.17;100.00;98175.80;2211594;80;20105;-58
2022/09/19 09:22:40;;;;;;;;;;;;;;;11.34;100.00;98174.07;2204587;80;20186;-57
2022/09/19 09:25:42;;;;;;;;;;;;;;;11.51;100.00;98187.75;2204107;80;20536;-57
2022/09/19 09:28:43;;;;;;;;;;;;;;;11.67;100.00;98185.63;2200812;80;20158;-57
2022/09/19 09:31:45;;;;;;;;;;;;;;;11.94;100.00;98181.89;2205682;80;20123;-57
2022/09/19 09:34:48;;;;;;;;;;;;;;;11.86;100.00;98187.68;2201790;80;20119;-59
2022/09/19 09:37:57;;;;;;;;;;;;;;;11.83;100.00;98188.41;2207747;80;20097;-58
2022/09/19 09:43:56;;;;;;;;;;;;;;;12.12;100.00;98185.73;2185717;80;20144;-60
2022/09/19 09:46:58;;;;;;;;;;;;;;;12.91;100.00;98180.82;2203019;80;20132;-58
2022/09/19 09:50:00;;;;;;;;;;;;;;;13.23;100.00;98177.84;2200066;80;20092;-58
2022/09/19 09:53:02;;;;;;;;;;;;;;;13.02;100.00;98194.44;2202979;80;20202;-58
2022/09/19 09:59:07;;;;;;;;;;;;;;;12.22;100.00;98203.41;2179391;80;20121;-59
2022/09/19 10:05:12;;;;;;;;;;;;;;;10.98;100.00;98223.06;2184519;80;20411;-59
2022/09/19 10:08:14;;;;;;;;;;;;;;;10.66;100.00;98209.63;2207485;80;20119;-58
2022/09/19 10:11:16;;;;;;;;;;;;;;;10.66;100.00;98200.45;2242057;78;20114;-59
2022/09/19 10:14:19;;;;;;;;;;;;;;;10.75;100.00;98201.94;2247637;78;20400;-59
2022/09/19 10:17:21;;;;;;;;;;;;;;;10.79;100.00;98202.58;2244863;78;20106;-58
2022/09/19 10:20:22;;;;;;;;;;;;;;;10.94;100.00;98202.42;2241373;78;20110;-59
2022/09/19 10:23:24;;;;;;;;;;;;;;;11.39;100.00;98216.59;2243884;78;20087;-59
2022/09/19 10:26:26;;;;;;;;;;;;;;;11.53;100.00;98201.09;2243900;78;20110;-58
2022/09/19 10:29:29;;;;;;;;;;;;;;;11.81;100.00;98202.98;2234780;79;20162;-58
2022/09/19 10:35:33;;;;;;;;;;;;;;;12.38;100.00;98206.98;2217950;79;20110;-58
2022/09/19 10:38:35;;;;;;;;;;;;;;;12.26;100.00;98212.73;2242814;78;20129;-58
2022/09/19 10:41:38;;;;;;;;;;;;;;;12.22;100.00;98209.97;2249413;78;20385;-59
2022/09/19 10:44:39;;;;;;;;;;;;;;;12.18;100.00;98226.45;2245193;79;20111;-58
2022/09/19 10:47:41;;;;;;;;;;;;;;;12.23;100.00;98219.55;2248992;78;20105;-59
2022/09/19 10:50:43;;;;;;;;;;;;;;;12.35;100.00;98217.75;2249624;78;20412;-58
2022/09/19 10:53:45;;;;;;;;;;;;;;;12.39;100.00;98217.37;2248388;78;20138;-58
2022/09/19 10:56:46;;;;;;;;;;;;;;;12.43;100.00;98216.19;2245016;78;20102;-58
2022/09/19 10:59:48;;;;;;;;;;;;;;;12.48;100.00;98217.99;2248239;78;20784;-58
2022/09/19 11:02:49;;;;;;;;;;;;;;;12.61;100.00;98219.17;2244866;78;20201;-58
2022/09/19 11:05:51;;;;;;;;;;;;;;;12.42;100.00;98218.94;2246261;79;20452;-58
2022/09/19 11:08:52;;;;;;;;;;;;;;;12.52;100.00;98219.06;2246454;78;20121;-58
2022/09/19 11:11:54;;;;;;;;;;;;;;;12.63;100.00;98212.48;2245805;78;20145;-58
2022/09/19 11:14:55;;;;;;;;;;;;;;;12.80;100.00;98219.00;2244127;79;20094;-58
2022/09/19 11:17:58;;;;;;;;;;;;;;;13.17;100.00;98212.95;2247078;78;20099;-59
2022/09/19 11:20:59;;;;;;;;;;;;;;;13.66;100.00;98196.70;2245441;78;20094;-59
2022/09/19 11:24:00;;;;;;;;;;;;;;;13.93;100.00;98208.53;2249149;78;20105;-59
2022/09/19 11:27:02;;;;;;;;;;;;;;;14.20;100.00;98206.66;2245008;78;20094;-58
2022/09/19 11:30:11;;;;;;;;;;;;;;;14.12;100.00;98205.16;2245547;78;20405;-58
2022/09/19 11:33:07;;;;;;;;;;;;;;;13.41;100.00;98215.88;2241342;79;20094;-59
2022/09/19 11:36:08;;;;;;;;;;;;;;;12.82;100.00;98212.66;2248861;78;20130;-59
2022/09/19 11:39:10;;;;;;;;;;;;;;;12.37;100.00;98224.56;2233379;79;20169;-59
2022/09/19 11:42:11;;;;;;;;;;;;;;;12.37;100.00;98225.88;2248897;78;20401;-57
2022/09/19 11:45:12;;;;;;;;;;;;;;;12.32;100.00;98219.30;2210089;80;20108;-58
2022/09/19 11:48:16;;;;;;;;;;;;;;;12.30;100.00;98231.26;2205313;80;20437;-57
2022/09/19 11:51:17;;;;;;;;;;;;;;;12.79;100.00;98230.02;2185633;80;20100;-57
2022/09/19 11:54:19;;;;;;;;;;;;;;;13.07;100.00;98228.29;2196643;80;20414;-57
2022/09/19 11:57:21;;;;;;;;;;;;;;;12.89;100.00;98224.04;2204124;80;20104;-59
2022/09/19 12:00:25;;;;;;;;;;;;;;;12.27;100.00;98232.81;2210560;80;20109;-59
2022/09/19 12:03:26;;;;;;;;;;;;;;;11.92;100.00;98237.16;2173508;79;20182;-58
2022/09/19 12:06:29;;;;;;;;;;;;;;;12.26;100.00;98240.34;2204868;80;20116;-58
2022/09/19 12:09:31;;;;;;;;;;;;;;;12.80;100.00;98241.37;2205542;80;20100;-59
2022/09/19 12:12:36;;;;;;;;;;;;;;;13.20;100.00;98255.29;2193448;80;20096;-58
2022/09/19 12:15:36;;;;;;;;;;;;;;;13.59;100.00;98241.66;2173403;80;20403;-59
2022/09/19 12:18:38;;;;;;;;;;;;;;;13.95;100.00;98223.27;2203541;80;20229;-58
2022/09/19 12:21:39;;;;;;;;;;;;;;;14.16;100.00;98221.07;2207720;80;20112;-57
2022/09/19 12:27:44;;;;;;;;;;;;;;;13.53;100.00;98240.36;2171370;81;20128;-59
2022/09/19 12:30:45;;;;;;;;;;;;;;;13.26;100.00;98252.18;2208482;80;20104;-59
2022/09/19 12:33:47;;;;;;;;;;;;;;;13.04;100.00;98247.80;2214923;80;20093;-57
2022/09/19 12:36:48;;;;;;;;;;;;;;;13.03;100.00;98248.78;2203764;80;20388;-58
2022/09/19 12:39:51;;;;;;;;;;;;;;;13.09;100.00;98244.32;2197151;80;20113;-58
2022/09/19 12:42:52;;;;;;;;;;;;;;;13.15;100.00;98241.67;2202864;80;20128;-59
2022/09/19 12:45:54;;;;;;;;;;;;;;;13.14;100.00;98242.14;2207267;80;20459;-58
2022/09/19 12:48:56;;;;;;;;;;;;;;;13.16;100.00;98238.09;2207737;80;20088;-58
2022/09/19 12:51:59;;;;;;;;;;;;;;;13.35;100.00;98236.14;2201790;80;20197;-57
2022/09/19 12:55:03;;;;;;;;;;;;;;;13.46;100.00;98241.83;2207895;80;20112;-58
2022/09/19 12:58:05;;;;;;;;;;;;;;;13.97;100.00;98237.62;2183790;80;20099;-59
2022/09/19 13:01:09;;;;;;;;;;;;;;;13.76;100.00;98247.67;2211345;80;20124;-59
2022/09/19 13:04:12;;;;;;;;;;;;;;;13.40;100.00;98247.61;2180605;80;20107;-58
2022/09/19 13:07:13;;;;;;;;;;;;;;;13.26;100.00;98250.01;2183280;80;20100;-58
2022/09/19 13:10:15;;;;;;;;;;;;;;;13.21;100.00;98248.25;2200860;80;20123;-59
2022/09/19 13:13:19;;;;;;;;;;;;;;;13.14;100.00;98250.03;2209259;80;20097;-59
2022/09/19 13:16:20;;;;;;;;;;;;;;;12.92;100.00;98246.98;2176082;80;20093;-59
2022/09/19 13:25:28;;;;;;;;;;;;;;;13.36;100.00;98256.72;2179837;80;20178;-59
2022/09/19 13:28:34;;;;;;;;;;;;;;;13.31;100.00;98261.02;2206887;80;20096;-59
2022/09/19 13:31:39;;;;;;;;;;;;;;;13.00;100.00;98263.47;2181262;80;20127;-57
2022/09/19 13:37:41;;;;;;;;;;;;;;;12.47;100.00;98282.55;2184924;80;20104;-58
2022/09/19 13:40:43;;;;;;;;;;;;;;;12.64;100.00;98278.59;2187808;80;20085;-59
2022/09/19 13:43:48;;;;;;;;;;;;;;;12.95;100.00;98285.39;2211326;79;20100;-59
2022/09/19 13:46:48;;;;;;;;;;;;;;;12.60;100.00;98291.65;2168434;80;20399;-57
2022/09/19 13:49:49;;;;;;;;;;;;;;;12.35;100.00;98294.84;2214007;80;20104;-58
2022/09/19 13:52:51;;;;;;;;;;;;;;;12.34;100.00;98292.33;2204999;80;20098;-59
2022/09/19 13:55:53;;;;;;;;;;;;;;;12.10;100.00;98296.71;2204979;80;20416;-59
2022/09/19 13:58:55;;;;;;;;;;;;;;;11.99;100.00;98293.23;2205980;80;20107;-59
2022/09/19 14:01:56;;;;;;;;;;;;;;;11.91;100.00;98302.95;2208470;80;20124;-59
2022/09/19 14:04:58;;;;;;;;;;;;;;;11.91;100.00;98302.49;2204013;80;20115;-58
2022/09/19 14:08:01;;;;;;;;;;;;;;;12.02;100.00;98303.50;2204167;80;20108;-59
2022/09/19 14:11:03;;;;;;;;;;;;;;;12.02;100.00;98303.02;2208738;80;20156;-59
2022/09/19 14:14:05;;;;;;;;;;;;;;;12.17;100.00;98311.55;2206196;80;20387;-59
2022/09/19 14:17:09;;;;;;;;;;;;;;;12.25;100.00;98305.21;2204862;80;20096;-59
2022/09/19 14:20:12;;;;;;;;;;;;;;;12.44;100.00;98303.34;2176342;80;20109;-59
2022/09/19 14:23:14;;;;;;;;;;;;;;;12.46;100.00;98304.55;2176412;80;20120;-59
2022/09/19 14:26:18;;;;;;;;;;;;;;;12.50;100.00;98315.65;2206041;80;20383;-59
2022/09/19 14:29:19;;;;;;;;;;;;;;;12.72;100.00;98309.58;2177376;80;20103;-58
2022/09/19 14:32:21;;;;;;;;;;;;;;;12.99;100.00;98306.58;2202741;80;20097;-59
2022/09/19 14:35:22;;;;;;;;;;;;;;;13.20;100.00;98306.64;2201279;80;20097;-59
2022/09/19 14:38:24;;;;;;;;;;;;;;;13.43;100.00;98303.53;2204396;80;20092;-59
2022/09/19 14:41:28;;;;;;;;;;;;;;;13.59;100.00;98304.89;2205401;80;20387;-58
2022/09/19 14:44:31;;;;;;;;;;;;;;;13.48;100.00;98308.42;2207845;80;20153;-59
2022/09/19 14:47:35;;;;;;;;;;;;;;;13.09;100.00;98306.69;2208385;80;20124;-58
2022/09/19 14:50:36;;;;;;;;;;;;;;;12.75;100.00;98303.58;2192283;80;20241;-58
2022/09/19 14:53:37;;;;;;;;;;;;;;;12.59;100.00;98318.91;2206589;80;20403;-58
2022/09/19 14:56:39;;;;;;;;;;;;;;;12.59;100.00;98320.22;2207998;80;20104;-59
2022/09/19 14:59:41;;;;;;;;;;;;;;;12.48;100.00;98336.81;2209121;80;20097;-58
2022/09/19 15:02:42;;;;;;;;;;;;;;;12.23;100.00;98323.40;2207495;80;20395;-58
2022/09/19 15:05:44;;;;;;;;;;;;;;;12.02;100.00;98319.27;2208046;80;20148;-58
2022/09/19 15:08:46;;;;;;;;;;;;;;;11.83;100.00;98327.67;2209285;80;20100;-58
2022/09/19 15:11:47;;;;;;;;;;;;;;;11.74;100.00;98316.87;2202156;80;20132;-58
2022/09/19 15:14:48;;;;;;;;;;;;;;;11.72;100.00;98324.50;2202228;80;20099;-58
2022/09/19 15:17:50;;;;;;;;;;;;;;;11.64;100.00;98311.95;2205188;80;20431;-59
2022/09/19 15:20:52;;;;;;;;;;;;;;;11.72;100.00;98321.42;2211442;80;20096;-59
2022/09/19 15:23:55;;;;;;;;;;;;;;;11.81;100.00;98313.78;2208866;80;20190;-58
2022/09/19 15:26:57;;;;;;;;;;;;;;;11.90;100.00;98310.49;2189361;80;20462;-59
2022/09/19 15:30:00;;;;;;;;;;;;;;;11.92;100.00;98316.00;2202637;80;20132;-59
2022/09/19 15:33:03;;;;;;;;;;;;;;;11.86;100.00;98320.38;2205384;80;20132;-59
2022/09/19 15:36:04;;;;;;;;;;;;;;;11.82;100.00;98322.04;2205606;79;20100;-58
2022/09/19 15:39:06;;;;;;;;;;;;;;;11.74;100.00;98320.81;2202397;80;20418;-58
2022/09/19 15:42:07;;;;;;;;;;;;;;;11.63;100.00;98323.88;2201431;80;20197;-58
2022/09/19 15:45:09;;;;;;;;;;;;;;;11.49;100.00;98330.13;2201900;80;20193;-57
2022/09/19 15:48:11;;;;;;;;;;;;;;;11.37;100.00;98327.92;2202088;80;20391;-59
2022/09/19 15:51:12;;;;;;;;;;;;;;;11.29;100.00;98320.58;2195714;80;20132;-58
2022/09/19 15:54:14;;;;;;;;;;;;;;;11.24;100.00;98329.28;2206780;80;20415;-58
2022/09/19 15:57:15;;;;;;;;;;;;;;;11.22;100.00;98332.47;2205389;80;20109;-59
2022/09/19 16:00:17;;;;;;;;;;;;;;;11.19;100.00;98335.32;2204090;80;20092;-58
2022/09/19 16:03:19;;;;;;;;;;;;;;;11.15;100.00;98332.09;2208250;80;20367;-58
2022/09/19 16:09:24;;;;;;;;;;;;;;;11.02;100.00;98335.20;2180666;80;20407;-58
2022/09/19 16:12:26;;;;;;;;;;;;;;;10.97;100.00;98344.72;2209173;80;20109;-58
2022/09/19 16:15:28;;;;;;;;;;;;;;;10.89;100.00;98340.50;2214302;80;20096;-58
2022/09/19 16:18:31;;;;;;;;;;;;;;;10.84;100.00;98345.22;2203629;80;20148;-59
2022/09/19 16:21:32;;;;;;;;;;;;;;;10.76;100.00;98347.08;2197894;80;20088;-58